Time;durP1;ratioP1;P1;durP2;ratioP2;P2;SDS_P1;SDS_P2;PMS_P1;PMS_P2;Temp;Humidity;BMP_temperature;BMP_pressure;BME280_temperature;BME280_humidity;BME280_pressure;Samples;Min_cycle;Max_cycle;Signal;HPM_P1;HPM_P2
2022/08/31 00:04:14;;;;;;;;;6.33;6.33;;;;;;;;5054865;28;45620;-70
2022/08/31 00:06:39;;;;;;;;;5.00;5.00;;;;;;;;5055378;28;45366;-70
2022/08/31 00:09:05;;;;;;;;;4.67;4.67;;;;;;;;5024556;28;45620;-71
2022/08/31 00:11:34;;;;;;;;;9.67;6.67;;;;;;;;5052662;28;45582;-70
2022/08/31 00:14:05;;;;;;;;;7.67;5.67;;;;;;;;5055431;28;45772;-70
2022/08/31 00:16:32;;;;;;;;;8.33;7.67;;;;;;;;5037527;28;45511;-70
2022/08/31 00:18:57;;;;;;;;;4.00;4.00;;;;;;;;5055022;28;45649;-70
2022/08/31 00:21:25;;;;;;;;;10.00;7.67;;;;;;;;5060827;28;45408;-70
2022/08/31 00:23:51;;;;;;;;;6.33;4.00;;;;;;;;5056555;28;45775;-70
2022/08/31 00:26:16;;;;;;;;;4.00;4.00;;;;;;;;5054741;28;45732;-71
2022/08/31 00:28:41;;;;;;;;;5.67;3.00;;;;;;;;5036987;28;45367;-70
2022/08/31 00:31:07;;;;;;;;;5.00;4.00;;;;;;;;5055121;28;45716;-70
2022/08/31 00:33:32;;;;;;;;;6.33;5.00;;;;;;;;5034920;28;47801;-70
2022/08/31 00:35:58;;;;;;;;;3.00;3.00;;;;;;;;5020973;28;46002;-68
2022/08/31 00:38:23;;;;;;;;;3.67;3.67;;;;;;;;5048713;28;45709;-70
2022/08/31 00:40:48;;;;;;;;;2.00;2.00;;;;;;;;5042704;28;45767;-70
2022/08/31 00:43:32;;;;;;;;;5.33;4.33;;;;;;;;5054277;28;45673;-70
2022/08/31 00:45:57;;;;;;;;;5.33;4.00;;;;;;;;5024258;28;45746;-70
2022/08/31 00:48:23;;;;;;;;;3.33;3.33;;;;;;;;5051320;28;45448;-71
2022/08/31 00:50:48;;;;;;;;;4.67;3.33;;;;;;;;5028513;28;45615;-72
2022/08/31 00:53:13;;;;;;;;;3.00;3.00;;;;;;;;5050379;28;45431;-69
2022/08/31 00:55:39;;;;;;;;;6.00;4.67;;;;;;;;5051099;28;45655;-71
2022/08/31 00:58:07;;;;;;;;;7.33;6.00;;;;;;;;5044697;28;45663;-69
2022/08/31 01:00:33;;;;;;;;;6.00;4.67;;;;;;;;5054056;28;45895;-70
2022/08/31 01:03:00;;;;;;;;;3.00;2.33;;;;;;;;5054102;28;45678;-69
2022/08/31 01:05:26;;;;;;;;;6.00;4.67;;;;;;;;5056812;28;45457;-69
2022/08/31 01:07:52;;;;;;;;;4.67;4.67;;;;;;;;5064129;28;45772;-70
2022/08/31 01:10:19;;;;;;;;;5.00;4.00;;;;;;;;5053777;28;45382;-68
2022/08/31 01:12:45;;;;;;;;;5.33;4.00;;;;;;;;5035631;28;47906;-69
2022/08/31 01:15:12;;;;;;;;;4.33;4.33;;;;;;;;5060702;28;45333;-69
2022/08/31 01:17:38;;;;;;;;;4.67;4.67;;;;;;;;5053456;28;45735;-69
2022/08/31 01:20:09;;;;;;;;;5.33;5.33;;;;;;;;5054038;28;45613;-68
2022/08/31 01:22:43;;;;;;;;;3.67;3.67;;;;;;;;5047653;28;45775;-68
2022/08/31 01:25:09;;;;;;;;;5.33;5.00;;;;;;;;5035468;28;45814;-69
2022/08/31 01:27:35;;;;;;;;;7.67;6.33;;;;;;;;5052248;28;45817;-68
2022/08/31 01:30:03;;;;;;;;;6.00;4.33;;;;;;;;5053257;28;45341;-70
2022/08/31 01:32:28;;;;;;;;;4.33;4.33;;;;;;;;5065663;28;45801;-71
2022/08/31 01:34:53;;;;;;;;;11.33;8.33;;;;;;;;5055112;28;45342;-70
2022/08/31 01:37:19;;;;;;;;;5.00;4.00;;;;;;;;5054094;28;45368;-70
2022/08/31 01:39:44;;;;;;;;;7.33;5.67;;;;;;;;5050582;28;45412;-69
2022/08/31 01:42:09;;;;;;;;;4.67;4.67;;;;;;;;5041166;28;46020;-70
2022/08/31 01:44:35;;;;;;;;;3.33;3.33;;;;;;;;5042625;28;45791;-69
2022/08/31 01:47:00;;;;;;;;;5.00;5.00;;;;;;;;5053909;28;45454;-70
2022/08/31 01:49:25;;;;;;;;;3.67;3.67;;;;;;;;5035198;28;45590;-69
2022/08/31 01:51:52;;;;;;;;;3.67;3.67;;;;;;;;5052830;28;45487;-70
2022/08/31 01:54:19;;;;;;;;;4.67;4.00;;;;;;;;5052893;28;45650;-71
2022/08/31 01:56:46;;;;;;;;;4.67;4.67;;;;;;;;5047079;28;45308;-70
2022/08/31 01:59:13;;;;;;;;;4.00;4.00;;;;;;;;5051290;28;45477;-70
2022/08/31 02:01:44;;;;;;;;;5.00;4.00;;;;;;;;5045713;28;45677;-70
2022/08/31 02:04:11;;;;;;;;;5.33;3.33;;;;;;;;5052912;28;45659;-69
2022/08/31 02:06:36;;;;;;;;;8.00;5.67;;;;;;;;5053265;28;45674;-69
2022/08/31 02:09:03;;;;;;;;;10.33;6.00;;;;;;;;5053055;28;45214;-69
2022/08/31 02:11:28;;;;;;;;;7.33;5.67;;;;;;;;5059692;28;46580;-68
2022/08/31 02:13:54;;;;;;;;;6.00;4.00;;;;;;;;5053548;28;45717;-69
2022/08/31 02:16:19;;;;;;;;;3.67;3.67;;;;;;;;5059540;28;45938;-71
2022/08/31 02:18:44;;;;;;;;;4.00;4.00;;;;;;;;5054713;28;45619;-70
2022/08/31 02:21:11;;;;;;;;;4.33;3.00;;;;;;;;5053460;28;46147;-71
2022/08/31 02:23:36;;;;;;;;;5.00;5.00;;;;;;;;5053469;28;45753;-71
2022/08/31 02:26:02;;;;;;;;;5.00;5.00;;;;;;;;5048636;28;45483;-68
2022/08/31 02:28:27;;;;;;;;;4.33;4.33;;;;;;;;5049943;28;45868;-70
2022/08/31 02:30:52;;;;;;;;;3.00;3.00;;;;;;;;5040617;28;46334;-69
2022/08/31 02:33:17;;;;;;;;;4.00;3.00;;;;;;;;5051258;28;45388;-70
2022/08/31 02:35:43;;;;;;;;;4.00;3.00;;;;;;;;5053424;28;46023;-71
2022/08/31 02:38:09;;;;;;;;;7.33;4.00;;;;;;;;5043401;28;45385;-71
2022/08/31 02:40:37;;;;;;;;;3.33;3.00;;;;;;;;5064769;28;45579;-70
2022/08/31 02:43:02;;;;;;;;;4.00;3.00;;;;;;;;5036348;28;45609;-70
2022/08/31 02:45:28;;;;;;;;;5.00;3.67;;;;;;;;5051120;28;45766;-72
2022/08/31 02:47:53;;;;;;;;;6.67;4.67;;;;;;;;5052018;28;45340;-71
2022/08/31 02:50:18;;;;;;;;;4.00;3.33;;;;;;;;5048770;28;45356;-70
2022/08/31 02:52:45;;;;;;;;;3.00;3.00;;;;;;;;5052223;28;45287;-70
2022/08/31 02:55:10;;;;;;;;;5.33;4.67;;;;;;;;5032592;28;45496;-70
2022/08/31 02:57:36;;;;;;;;;5.00;5.00;;;;;;;;5052569;28;45455;-70
2022/08/31 03:00:02;;;;;;;;;4.00;4.00;;;;;;;;5058321;28;46890;-72
2022/08/31 03:02:27;;;;;;;;;5.33;5.00;;;;;;;;5051271;28;45760;-69
2022/08/31 03:04:52;;;;;;;;;3.00;3.00;;;;;;;;5031520;28;45738;-71
2022/08/31 03:07:17;;;;;;;;;6.00;4.67;;;;;;;;5052575;28;45420;-69
2022/08/31 03:09:43;;;;;;;;;7.00;4.00;;;;;;;;5035199;28;45478;-71
2022/08/31 03:12:08;;;;;;;;;3.33;3.33;;;;;;;;5056143;28;45333;-70
2022/08/31 03:14:33;;;;;;;;;4.67;4.00;;;;;;;;5062264;28;45704;-70
2022/08/31 03:16:59;;;;;;;;;7.67;5.00;;;;;;;;5057387;28;45551;-71
2022/08/31 03:19:24;;;;;;;;;3.00;3.00;;;;;;;;5055873;28;45428;-71
2022/08/31 03:21:49;;;;;;;;;3.67;3.67;;;;;;;;5055994;28;45743;-70
2022/08/31 03:24:17;;;;;;;;;5.33;5.00;;;;;;;;5055940;28;45283;-72
2022/08/31 03:26:43;;;;;;;;;3.67;3.67;;;;;;;;5055406;28;45435;-71
2022/08/31 03:29:09;;;;;;;;;4.00;4.00;;;;;;;;5048806;28;45537;-71
2022/08/31 03:31:34;;;;;;;;;4.00;4.00;;;;;;;;5057704;28;45380;-70
2022/08/31 03:33:59;;;;;;;;;3.33;3.33;;;;;;;;5038046;28;45544;-68
2022/08/31 03:36:24;;;;;;;;;4.00;4.00;;;;;;;;5036167;28;46204;-69
2022/08/31 03:38:50;;;;;;;;;6.33;5.00;;;;;;;;5036383;28;48097;-71
2022/08/31 03:41:17;;;;;;;;;5.67;5.67;;;;;;;;5055873;28;45439;-71
2022/08/31 03:43:43;;;;;;;;;5.00;5.00;;;;;;;;5048308;28;45368;-70
2022/08/31 03:46:08;;;;;;;;;8.00;8.00;;;;;;;;5053691;28;45412;-70
2022/08/31 03:48:33;;;;;;;;;6.33;6.00;;;;;;;;5055011;28;45724;-69
2022/08/31 03:50:58;;;;;;;;;3.33;3.33;;;;;;;;5038119;28;45687;-69
2022/08/31 03:53:24;;;;;;;;;5.00;3.33;;;;;;;;5055114;28;45472;-68
2022/08/31 03:55:49;;;;;;;;;4.33;4.33;;;;;;;;5054647;28;45718;-72
2022/08/31 03:58:14;;;;;;;;;5.00;4.00;;;;;;;;5056589;28;46079;-71
2022/08/31 04:00:42;;;;;;;;;6.00;6.00;;;;;;;;5060614;28;45778;-70
2022/08/31 04:03:07;;;;;;;;;7.00;6.00;;;;;;;;5055122;28;45454;-70
2022/08/31 04:05:33;;;;;;;;;6.00;6.00;;;;;;;;5054314;28;45776;-69
2022/08/31 04:07:59;;;;;;;;;5.33;5.33;;;;;;;;5057841;28;46544;-69
2022/08/31 04:10:24;;;;;;;;;5.00;5.00;;;;;;;;5056585;28;45643;-70
2022/08/31 04:12:49;;;;;;;;;6.67;5.33;;;;;;;;5054972;28;45656;-70
2022/08/31 04:15:15;;;;;;;;;5.00;4.00;;;;;;;;5036194;28;46362;-71
2022/08/31 04:17:42;;;;;;;;;9.33;6.00;;;;;;;;5059143;28;45813;-69
2022/08/31 04:20:08;;;;;;;;;5.00;4.00;;;;;;;;5036107;28;45763;-69
2022/08/31 04:22:33;;;;;;;;;5.00;5.00;;;;;;;;5058621;28;45652;-68
2022/08/31 04:24:58;;;;;;;;;5.67;5.00;;;;;;;;5053963;28;45753;-70
2022/08/31 04:27:24;;;;;;;;;4.00;4.00;;;;;;;;5035600;28;48017;-71
2022/08/31 04:29:49;;;;;;;;;1.00;1.00;;;;;;;;5051881;28;45449;-72
2022/08/31 04:32:14;;;;;;;;;8.67;6.00;;;;;;;;5058326;28;45710;-70
2022/08/31 04:34:39;;;;;;;;;7.67;5.00;;;;;;;;5056445;28;46393;-69
2022/08/31 04:37:07;;;;;;;;;4.00;4.00;;;;;;;;5051083;28;46074;-70
2022/08/31 04:39:32;;;;;;;;;7.67;4.33;;;;;;;;5056268;28;45414;-72
2022/08/31 04:41:58;;;;;;;;;8.00;6.67;;;;;;;;5054833;28;45891;-70
2022/08/31 04:44:25;;;;;;;;;8.33;6.00;;;;;;;;5056604;28;45472;-73
2022/08/31 04:46:50;;;;;;;;;7.00;7.00;;;;;;;;5054799;28;47176;-70
2022/08/31 04:49:16;;;;;;;;;5.00;5.00;;;;;;;;5053624;28;45391;-69
2022/08/31 04:51:41;;;;;;;;;7.00;5.67;;;;;;;;5054769;28;45481;-69
2022/08/31 04:54:08;;;;;;;;;7.67;6.67;;;;;;;;5031043;28;45487;-69
2022/08/31 04:56:36;;;;;;;;;8.67;7.00;;;;;;;;5053254;28;45727;-70
2022/08/31 04:59:03;;;;;;;;;4.33;4.33;;;;;;;;5051654;28;46430;-68
2022/08/31 05:01:30;;;;;;;;;4.67;4.67;;;;;;;;5170204;22;45394;-69
2022/08/31 05:03:56;;;;;;;;;4.00;4.00;;;;;;;;5074031;28;45550;-70
2022/08/31 05:06:23;;;;;;;;;5.33;4.67;;;;;;;;5074148;27;45420;-69
2022/08/31 05:08:55;;;;;;;;;4.33;4.33;;;;;;;;5056815;28;45746;-71
2022/08/31 05:11:21;;;;;;;;;6.00;6.00;;;;;;;;5068986;27;45600;-72
2022/08/31 05:13:47;;;;;;;;;7.00;4.00;;;;;;;;5061129;27;45360;-69
2022/08/31 05:16:14;;;;;;;;;6.00;5.33;;;;;;;;5071226;27;45986;-66
2022/08/31 05:18:41;;;;;;;;;9.67;5.33;;;;;;;;5077275;27;45715;-68
2022/08/31 05:21:10;;;;;;;;;6.67;6.33;;;;;;;;5056078;28;45385;-68
2022/08/31 05:23:35;;;;;;;;;5.33;5.33;;;;;;;;5068691;28;45699;-67
2022/08/31 05:26:01;;;;;;;;;4.67;4.67;;;;;;;;5055217;28;45552;-68
2022/08/31 05:28:26;;;;;;;;;6.00;6.00;;;;;;;;5049956;28;46114;-68
2022/08/31 05:30:52;;;;;;;;;5.00;5.00;;;;;;;;5055629;27;45490;-70
2022/08/31 05:33:17;;;;;;;;;4.67;3.33;;;;;;;;5037556;28;46483;-69
2022/08/31 05:35:43;;;;;;;;;6.33;3.33;;;;;;;;5066120;27;45828;-69
2022/08/31 05:38:09;;;;;;;;;5.00;5.00;;;;;;;;5069481;27;45417;-70
2022/08/31 05:40:34;;;;;;;;;3.00;3.00;;;;;;;;5058570;27;46526;-69
2022/08/31 05:42:59;;;;;;;;;5.00;5.00;;;;;;;;5056237;27;46117;-68
2022/08/31 05:45:24;;;;;;;;;3.33;3.33;;;;;;;;5041305;27;48283;-68
2022/08/31 05:47:50;;;;;;;;;3.67;3.67;;;;;;;;5060754;27;45376;-70
2022/08/31 05:50:17;;;;;;;;;3.67;3.67;;;;;;;;5061107;27;45340;-69
2022/08/31 05:52:42;;;;;;;;;5.00;5.00;;;;;;;;5055846;27;46092;-67
2022/08/31 05:55:08;;;;;;;;;8.33;5.33;;;;;;;;5059557;27;46424;-67
2022/08/31 05:57:33;;;;;;;;;3.67;3.67;;;;;;;;5059114;27;45373;-68
2022/08/31 05:59:58;;;;;;;;;5.67;5.67;;;;;;;;5058611;27;45791;-68
2022/08/31 06:02:24;;;;;;;;;7.67;5.00;;;;;;;;5063861;27;45279;-69
2022/08/31 06:04:50;;;;;;;;;4.00;4.00;;;;;;;;5059222;27;45712;-69
2022/08/31 06:07:15;;;;;;;;;3.00;3.00;;;;;;;;5038908;27;45796;-69
2022/08/31 06:09:41;;;;;;;;;6.00;5.00;;;;;;;;5038136;28;45669;-68
2022/08/31 06:12:06;;;;;;;;;5.33;5.33;;;;;;;;5057409;27;45845;-69
2022/08/31 06:14:32;;;;;;;;;8.33;5.67;;;;;;;;5042319;27;47112;-68
2022/08/31 06:16:58;;;;;;;;;6.00;5.00;;;;;;;;5062249;27;45674;-69
2022/08/31 06:19:24;;;;;;;;;6.33;5.33;;;;;;;;5058790;27;45540;-69
2022/08/31 06:21:50;;;;;;;;;6.00;6.00;;;;;;;;5062667;27;45990;-72
2022/08/31 06:24:16;;;;;;;;;6.00;6.00;;;;;;;;5064100;27;47074;-76
2022/08/31 06:26:42;;;;;;;;;6.00;6.00;;;;;;;;5057962;27;45555;-75
2022/08/31 06:29:08;;;;;;;;;4.33;4.33;;;;;;;;5057843;27;45711;-75
2022/08/31 06:31:36;;;;;;;;;4.33;4.33;;;;;;;;5069363;27;45574;-75
2022/08/31 06:34:01;;;;;;;;;4.00;4.00;;;;;;;;5063812;28;46430;-76
2022/08/31 06:36:28;;;;;;;;;4.00;4.00;;;;;;;;5068024;27;45687;-77
2022/08/31 06:38:55;;;;;;;;;4.00;4.00;;;;;;;;5055798;27;45801;-76
2022/08/31 06:41:22;;;;;;;;;4.00;4.00;;;;;;;;5072443;27;45650;-76
2022/08/31 06:43:48;;;;;;;;;6.75;6.50;;;;;;;;5063766;28;46463;-76
2022/08/31 06:46:14;;;;;;;;;3.75;3.75;;;;;;;;5043849;27;46020;-76
2022/08/31 06:48:39;;;;;;;;;5.25;4.25;;;;;;;;5069722;27;45800;-75
2022/08/31 06:51:05;;;;;;;;;4.00;4.00;;;;;;;;5064125;28;46204;-77
2022/08/31 06:53:31;;;;;;;;;3.50;3.00;;;;;;;;5060912;27;45507;-76
2022/08/31 06:56:02;;;;;;;;;6.00;4.00;;;;;;;;5068721;28;45452;-78
2022/08/31 06:58:28;;;;;;;;;4.75;4.75;;;;;;;;5054308;27;46019;-81
2022/08/31 07:00:54;;;;;;;;;5.75;4.00;;;;;;;;5066347;27;45439;-74
2022/08/31 07:03:22;;;;;;;;;4.50;4.25;;;;;;;;5050884;28;47994;-75
2022/08/31 07:05:49;;;;;;;;;3.00;2.00;;;;;;;;5062664;27;45764;-76
2022/08/31 07:08:14;;;;;;;;;1.25;1.25;;;;;;;;5067328;27;46348;-77
2022/08/31 07:10:40;;;;;;;;;4.50;2.75;;;;;;;;5061017;28;45394;-79
2022/08/31 07:13:05;;;;;;;;;5.50;4.75;;;;;;;;5041949;28;48220;-74
2022/08/31 07:15:30;;;;;;;;;3.00;2.00;;;;;;;;5059358;27;45423;-76
2022/08/31 07:17:55;;;;;;;;;4.00;4.00;;;;;;;;5060563;27;45469;-79
2022/08/31 07:20:21;;;;;;;;;4.00;3.00;;;;;;;;5066414;27;45648;-76
2022/08/31 07:22:46;;;;;;;;;3.25;3.25;;;;;;;;5066446;27;46169;-75
2022/08/31 07:25:13;;;;;;;;;2.25;2.25;;;;;;;;5049173;28;45922;-78
2022/08/31 07:27:38;;;;;;;;;5.00;4.00;;;;;;;;5053354;28;45328;-77
2022/08/31 07:30:04;;;;;;;;;3.75;3.75;;;;;;;;5046779;28;46061;-78
2022/08/31 07:32:29;;;;;;;;;4.00;4.00;;;;;;;;5055914;28;46213;-77
2022/08/31 07:34:55;;;;;;;;;2.75;2.75;;;;;;;;5050334;27;45683;-78
2022/08/31 07:42:49;;;;;;;;;4.75;4.00;;;;;;;;5064153;28;45803;-78
2022/08/31 07:45:23;;;;;;;;;4.25;4.00;;;;;;;;5068258;27;45305;-77
2022/08/31 07:47:49;;;;;;;;;3.75;2.75;;;;;;;;5049255;28;45667;-77
2022/08/31 07:50:15;;;;;;;;;4.75;4.75;;;;;;;;5061503;28;45379;-75
2022/08/31 07:52:46;;;;;;;;;4.25;4.25;;;;;;;;5077116;27;45608;-76
2022/08/31 07:55:11;;;;;;;;;5.00;4.50;;;;;;;;5059699;27;45413;-75
2022/08/31 07:57:42;;;;;;;;;5.50;5.50;;;;;;;;5073111;27;45670;-76
2022/08/31 08:00:08;;;;;;;;;6.00;6.00;;;;;;;;5069274;28;45464;-75
2022/08/31 08:02:37;;;;;;;;;3.00;3.00;;;;;;;;5075398;27;45816;-77
2022/08/31 08:05:05;;;;;;;;;4.00;4.00;;;;;;;;5068979;28;45448;-77
2022/08/31 08:07:32;;;;;;;;;5.00;4.25;;;;;;;;5075331;27;45325;-74
2022/08/31 08:09:58;;;;;;;;;5.50;5.00;;;;;;;;5065802;27;46189;-76
2022/08/31 08:12:24;;;;;;;;;5.75;5.75;;;;;;;;5066913;27;45292;-75
2022/08/31 08:14:51;;;;;;;;;4.25;3.75;;;;;;;;5067529;27;45797;-78
2022/08/31 08:17:16;;;;;;;;;9.00;8.50;;;;;;;;5065411;27;45922;-77
2022/08/31 08:19:42;;;;;;;;;5.50;5.00;;;;;;;;5063815;27;45330;-73
2022/08/31 08:22:07;;;;;;;;;7.67;6.00;;;;;;;;5062112;27;45839;-75
2022/08/31 08:24:32;;;;;;;;;5.67;5.67;;;;;;;;5049307;27;45760;-78
2022/08/31 08:26:58;;;;;;;;;7.00;7.00;;;;;;;;5069111;27;46632;-78
2022/08/31 08:29:23;;;;;;;;;3.50;3.50;;;;;;;;5056105;28;45544;-73
2022/08/31 08:31:51;;;;;;;;;5.75;5.00;;;;;;;;5057432;28;47331;-73
2022/08/31 08:34:18;;;;;;;;;6.75;6.75;;;;;;;;5075683;27;45701;-73
2022/08/31 08:36:44;;;;;;;;;4.75;4.75;;;;;;;;5057985;28;45515;-75
2022/08/31 08:39:10;;;;;;;;;5.33;5.33;;;;;;;;5078502;27;45908;-74
2022/08/31 08:41:36;;;;;;;;;6.00;6.00;;;;;;;;5066158;28;46026;-74
2022/08/31 08:44:04;;;;;;;;;6.00;4.00;;;;;;;;5068420;28;45687;-73
2022/08/31 08:46:31;;;;;;;;;5.67;4.67;;;;;;;;5071245;28;45327;-76
2022/08/31 08:48:59;;;;;;;;;5.00;5.00;;;;;;;;5060469;28;46099;-74
2022/08/31 08:51:30;;;;;;;;;5.67;5.67;;;;;;;;5065180;27;45449;-74
2022/08/31 08:53:58;;;;;;;;;5.75;5.00;;;;;;;;5047521;28;45432;-75
2022/08/31 08:56:24;;;;;;;;;7.00;7.00;;;;;;;;5061854;28;45628;-76
2022/08/31 08:58:50;;;;;;;;;4.75;3.00;;;;;;;;5062681;27;45864;-74
2022/08/31 09:01:24;;;;;;;;;6.50;6.50;;;;;;;;5062832;28;45441;-76
2022/08/31 09:03:55;;;;;;;;;7.50;6.25;;;;;;;;5054063;28;45384;-77
2022/08/31 09:06:29;;;;;;;;;6.25;4.00;;;;;;;;5062308;28;45647;-75
2022/08/31 09:09:21;;;;;;;;;10.67;8.00;;;;;;;;5074255;28;45893;-74
2022/08/31 09:11:58;;;;;;;;;5.00;3.00;;;;;;;;5059870;27;46673;-75
2022/08/31 09:14:35;;;;;;;;;6.75;5.75;;;;;;;;5069973;27;45522;-76
2022/08/31 09:17:16;;;;;;;;;5.25;2.75;;;;;;;;5068455;28;45381;-76
2022/08/31 09:19:59;;;;;;;;;3.75;3.75;;;;;;;;5074020;27;45846;-77
2022/08/31 09:22:25;;;;;;;;;2.33;2.33;;;;;;;;5072500;28;45367;-77
2022/08/31 09:24:55;;;;;;;;;6.67;5.67;;;;;;;;5075432;27;45322;-76
2022/08/31 09:27:44;;;;;;;;;5.75;5.75;;;;;;;;5058394;28;46435;-76
2022/08/31 09:30:11;;;;;;;;;7.33;6.00;;;;;;;;5059839;27;45512;-73
2022/08/31 09:32:36;;;;;;;;;5.33;5.33;;;;;;;;5056131;27;45424;-74
2022/08/31 09:35:07;;;;;;;;;5.67;5.67;;;;;;;;5056182;27;45361;-75
2022/08/31 09:37:45;;;;;;;;;4.33;4.33;;;;;;;;5057431;27;45878;-71
2022/08/31 09:40:13;;;;;;;;;4.00;4.00;;;;;;;;5055001;27;45721;-71
2022/08/31 09:42:39;;;;;;;;;5.00;5.00;;;;;;;;5041929;27;46956;-72
2022/08/31 09:45:14;;;;;;;;;7.33;7.33;;;;;;;;5055994;27;45635;-72
2022/08/31 09:47:54;;;;;;;;;11.00;9.67;;;;;;;;5054533;27;45353;-74
2022/08/31 09:50:26;;;;;;;;;6.00;6.00;;;;;;;;5056843;27;45935;-72
2022/08/31 09:56:02;;;;;;;;;3.67;3.33;;;;;;;;5059787;27;46300;-72
2022/08/31 09:58:29;;;;;;;;;7.00;6.67;;;;;;;;5070943;27;45714;-74
2022/08/31 10:00:55;;;;;;;;;5.00;5.00;;;;;;;;5060691;28;45827;-75
2022/08/31 10:03:22;;;;;;;;;5.33;4.33;;;;;;;;5073269;27;45984;-73
2022/08/31 10:05:50;;;;;;;;;5.00;4.00;;;;;;;;5071707;28;45349;-72
2022/08/31 10:08:26;;;;;;;;;4.50;3.75;;;;;;;;5055348;27;45730;-72
2022/08/31 10:10:54;;;;;;;;;4.00;4.00;;;;;;;;5072401;27;45649;-74
2022/08/31 10:13:33;;;;;;;;;4.67;4.67;;;;;;;;5072828;27;46167;-73
2022/08/31 10:16:01;;;;;;;;;5.00;4.00;;;;;;;;5069485;27;46226;-73
2022/08/31 10:18:29;;;;;;;;;3.33;3.00;;;;;;;;5073115;28;45725;-73
2022/08/31 10:21:03;;;;;;;;;7.00;6.00;;;;;;;;5056635;28;45653;-73
2022/08/31 10:23:53;;;;;;;;;6.67;6.33;;;;;;;;5068917;28;45428;-75
2022/08/31 10:26:35;;;;;;;;;6.00;4.00;;;;;;;;5061925;28;45396;-75
2022/08/31 10:29:12;;;;;;;;;5.67;5.67;;;;;;;;5069172;27;45675;-72
2022/08/31 10:31:44;;;;;;;;;2.00;2.00;;;;;;;;5054305;28;45638;-73
2022/08/31 10:37:06;;;;;;;;;6.33;6.00;;;;;;;;5061659;27;45480;-72
2022/08/31 10:39:36;;;;;;;;;5.00;5.00;;;;;;;;5051668;27;45500;-71
2022/08/31 10:42:04;;;;;;;;;9.33;6.00;;;;;;;;5050799;27;45407;-71
2022/08/31 10:44:51;;;;;;;;;5.00;4.00;;;;;;;;5067661;27;45685;-72
2022/08/31 10:47:18;;;;;;;;;6.00;6.00;;;;;;;;5067821;27;45688;-70
2022/08/31 10:49:44;;;;;;;;;5.67;5.67;;;;;;;;5064457;27;45692;-70
2022/08/31 10:52:16;;;;;;;;;5.33;5.33;;;;;;;;5053403;28;45647;-74
2022/08/31 10:55:05;;;;;;;;;6.67;5.00;;;;;;;;5052862;28;45477;-72
2022/08/31 10:57:37;;;;;;;;;3.00;3.00;;;;;;;;5051206;27;45409;-70
2022/08/31 11:00:02;;;;;;;;;5.25;5.25;;;;;;;;5054889;28;45818;-71
2022/08/31 11:02:42;;;;;;;;;7.00;6.00;;;;;;;;5053715;28;46230;-70
2022/08/31 11:05:32;;;;;;;;;4.33;4.33;;;;;;;;5069747;27;46623;-70
2022/08/31 11:08:12;;;;;;;;;5.00;4.33;;;;;;;;5069626;27;45486;-72
2022/08/31 11:10:43;;;;;;;;;7.00;7.00;;;;;;;;5063640;27;45560;-71
2022/08/31 11:13:19;;;;;;;;;7.50;6.50;;;;;;;;5065728;27;45627;-72
2022/08/31 11:16:08;;;;;;;;;6.00;6.00;;;;;;;;5070591;27;45532;-79
2022/08/31 11:18:47;;;;;;;;;5.00;5.00;;;;;;;;5046951;28;45966;-73
2022/08/31 11:21:34;;;;;;;;;8.00;6.75;;;;;;;;5068535;28;45704;-72
2022/08/31 11:24:05;;;;;;;;;6.75;6.75;;;;;;;;5065688;28;45889;-73
2022/08/31 11:26:30;;;;;;;;;8.33;5.67;;;;;;;;5049865;28;47387;-75
2022/08/31 11:29:00;;;;;;;;;5.33;5.33;;;;;;;;5067242;28;45285;-77
2022/08/31 11:31:29;;;;;;;;;6.00;6.00;;;;;;;;5054219;27;45680;-75
2022/08/31 11:34:03;;;;;;;;;6.00;6.00;;;;;;;;5038110;28;46262;-75
2022/08/31 11:36:49;;;;;;;;;7.00;6.67;;;;;;;;5062461;27;46272;-75
2022/08/31 11:39:21;;;;;;;;;5.75;4.00;;;;;;;;5057447;27;45572;-76
2022/08/31 11:41:47;;;;;;;;;7.00;6.50;;;;;;;;5066827;27;45459;-75
2022/08/31 11:44:32;;;;;;;;;7.00;7.00;;;;;;;;5065863;27;45788;-75
2022/08/31 11:47:08;;;;;;;;;8.25;6.25;;;;;;;;5064418;28;47175;-75
2022/08/31 11:49:44;;;;;;;;;6.33;6.33;;;;;;;;5050214;28;45464;-75
2022/08/31 11:52:23;;;;;;;;;6.67;6.67;;;;;;;;5064006;28;45622;-75
2022/08/31 11:54:49;;;;;;;;;7.75;7.75;;;;;;;;5068746;27;46074;-77
2022/08/31 11:57:24;;;;;;;;;7.25;5.50;;;;;;;;5065468;27;46513;-74
2022/08/31 11:59:50;;;;;;;;;7.33;7.33;;;;;;;;5067574;27;45531;-76
2022/08/31 12:02:19;;;;;;;;;10.67;8.33;;;;;;;;5067786;28;45760;-75
2022/08/31 12:04:50;;;;;;;;;6.25;5.00;;;;;;;;5072525;27;45892;-74
2022/08/31 12:07:27;;;;;;;;;6.00;6.00;;;;;;;;5056062;28;46507;-73
2022/08/31 12:09:58;;;;;;;;;6.50;6.00;;;;;;;;5069301;28;45450;-74
2022/08/31 12:12:42;;;;;;;;;7.00;7.00;;;;;;;;5060516;28;45302;-74
2022/08/31 12:15:07;;;;;;;;;7.67;5.33;;;;;;;;5064742;28;45767;-75
2022/08/31 12:17:37;;;;;;;;;6.00;6.00;;;;;;;;5057052;27;47882;-74
2022/08/31 12:20:07;;;;;;;;;7.25;7.25;;;;;;;;5064081;27;45467;-73
2022/08/31 12:25:43;;;;;;;;;9.33;8.00;;;;;;;;5063377;28;45490;-68
2022/08/31 12:28:11;;;;;;;;;6.67;6.67;;;;;;;;5058905;27;46295;-68
2022/08/31 12:30:46;;;;;;;;;6.67;5.67;;;;;;;;5065030;28;45920;-69
2022/08/31 12:33:16;;;;;;;;;8.00;6.67;;;;;;;;5066521;28;45739;-68
2022/08/31 12:35:44;;;;;;;;;6.67;6.00;;;;;;;;5059538;27;46049;-68
2022/08/31 12:38:16;;;;;;;;;10.67;9.00;;;;;;;;5062474;27;46906;-70
2022/08/31 12:40:46;;;;;;;;;9.00;7.33;;;;;;;;5066537;28;45372;-68
2022/08/31 12:43:34;;;;;;;;;7.67;7.67;;;;;;;;5065575;28;45853;-71
2022/08/31 12:45:59;;;;;;;;;10.67;9.67;;;;;;;;5063832;27;45362;-71
2022/08/31 12:48:34;;;;;;;;;8.33;8.00;;;;;;;;5064734;28;45610;-69
2022/08/31 12:51:16;;;;;;;;;8.67;6.67;;;;;;;;5063591;27;45824;-70
2022/08/31 12:53:51;;;;;;;;;9.33;9.33;;;;;;;;5066238;27;45494;-69
2022/08/31 12:56:31;;;;;;;;;6.00;6.00;;;;;;;;5064529;28;45516;-68
2022/08/31 12:58:59;;;;;;;;;9.00;7.33;;;;;;;;5063332;28;46350;-68
2022/08/31 13:01:25;;;;;;;;;8.67;7.00;;;;;;;;5061891;27;45646;-67
2022/08/31 13:04:01;;;;;;;;;9.67;5.67;;;;;;;;5064951;27;45357;-69
2022/08/31 13:06:31;;;;;;;;;8.00;8.00;;;;;;;;5065778;27;45490;-69
2022/08/31 13:08:57;;;;;;;;;10.00;10.00;;;;;;;;5066764;28;46354;-69
2022/08/31 13:11:25;;;;;;;;;7.00;6.00;;;;;;;;5061941;27;45504;-68
2022/08/31 13:13:51;;;;;;;;;7.67;7.67;;;;;;;;5060203;28;46403;-69
2022/08/31 13:16:17;;;;;;;;;8.67;8.67;;;;;;;;5056784;28;46050;-70
2022/08/31 13:18:42;;;;;;;;;7.67;7.00;;;;;;;;5059974;28;45411;-69
2022/08/31 13:21:07;;;;;;;;;7.33;7.33;;;;;;;;5058007;27;45646;-69
2022/08/31 13:23:41;;;;;;;;;9.33;7.00;;;;;;;;5065753;28;45324;-70
2022/08/31 13:26:18;;;;;;;;;8.00;7.00;;;;;;;;5059918;28;45441;-69
2022/08/31 13:29:06;;;;;;;;;11.00;8.33;;;;;;;;5069189;28;46122;-68
2022/08/31 13:31:34;;;;;;;;;12.67;10.00;;;;;;;;5064175;28;45728;-68
2022/08/31 13:34:01;;;;;;;;;10.33;10.33;;;;;;;;5042902;28;45466;-67
2022/08/31 13:36:33;;;;;;;;;13.33;12.33;;;;;;;;5067533;28;45492;-68
2022/08/31 13:39:10;;;;;;;;;8.67;8.67;;;;;;;;5063759;28;45415;-67
2022/08/31 13:41:37;;;;;;;;;10.33;9.33;;;;;;;;5045350;27;45534;-67
2022/08/31 13:44:04;;;;;;;;;11.00;10.33;;;;;;;;5064533;27;45619;-67
2022/08/31 13:46:36;;;;;;;;;10.67;10.00;;;;;;;;5066441;27;45404;-68
2022/08/31 13:49:03;;;;;;;;;9.00;8.00;;;;;;;;5067545;27;45776;-70
2022/08/31 13:51:39;;;;;;;;;10.33;9.33;;;;;;;;5067742;27;46568;-68
2022/08/31 13:54:09;;;;;;;;;10.00;9.00;;;;;;;;5065319;28;45288;-67
2022/08/31 13:56:57;;;;;;;;;8.00;8.00;;;;;;;;5060740;28;45425;-69
2022/08/31 13:59:28;;;;;;;;;8.00;8.00;;;;;;;;5056132;28;46777;-67
2022/08/31 14:02:05;;;;;;;;;13.67;10.33;;;;;;;;5061287;28;45863;-68
2022/08/31 14:04:42;;;;;;;;;9.25;9.25;;;;;;;;5068597;28;45448;-68
2022/08/31 14:07:22;;;;;;;;;13.33;9.00;;;;;;;;5069089;27;45656;-69
2022/08/31 14:09:47;;;;;;;;;9.67;9.67;;;;;;;;5059649;27;45679;-68
2022/08/31 14:12:33;;;;;;;;;9.00;9.00;;;;;;;;5064389;28;45865;-67
2022/08/31 14:14:59;;;;;;;;;7.67;7.33;;;;;;;;5066478;27;45842;-68
2022/08/31 14:17:25;;;;;;;;;10.00;8.67;;;;;;;;5066768;27;46031;-68
2022/08/31 14:19:50;;;;;;;;;8.33;8.33;;;;;;;;5065450;27;45960;-68
2022/08/31 14:22:16;;;;;;;;;7.67;7.67;;;;;;;;5061429;27;45806;-67
2022/08/31 14:24:42;;;;;;;;;10.00;10.00;;;;;;;;5066741;28;45398;-67
2022/08/31 14:27:09;;;;;;;;;8.33;8.00;;;;;;;;5065597;28;45427;-67
2022/08/31 14:29:36;;;;;;;;;4.67;4.67;;;;;;;;5069518;27;45530;-67
2022/08/31 14:32:03;;;;;;;;;8.67;8.67;;;;;;;;5064198;28;45444;-69
2022/08/31 14:34:30;;;;;;;;;8.67;8.67;;;;;;;;5061262;28;45722;-67
2022/08/31 14:37:05;;;;;;;;;10.00;10.00;;;;;;;;5064854;27;45473;-68
2022/08/31 14:39:33;;;;;;;;;13.33;11.33;;;;;;;;5066798;28;45682;-67
2022/08/31 14:42:00;;;;;;;;;10.00;9.00;;;;;;;;5065322;27;45772;-68
2022/08/31 14:44:30;;;;;;;;;8.67;8.67;;;;;;;;5067738;27;45445;-67
2022/08/31 14:46:55;;;;;;;;;11.00;11.00;;;;;;;;5069763;27;45565;-67
2022/08/31 14:49:22;;;;;;;;;11.00;9.00;;;;;;;;5060304;28;45368;-69
2022/08/31 14:51:47;;;;;;;;;9.00;9.00;;;;;;;;5063436;27;45420;-68
2022/08/31 14:54:15;;;;;;;;;9.00;8.00;;;;;;;;5069468;27;45518;-67
2022/08/31 14:56:47;;;;;;;;;10.00;8.00;;;;;;;;5068036;27;45727;-68
2022/08/31 14:59:14;;;;;;;;;10.33;8.33;;;;;;;;5062598;27;45401;-67
2022/08/31 15:01:43;;;;;;;;;8.00;8.00;;;;;;;;5044380;28;45734;-68
2022/08/31 15:04:08;;;;;;;;;8.67;7.00;;;;;;;;5065780;28;45386;-68
2022/08/31 15:06:34;;;;;;;;;9.33;8.00;;;;;;;;5041889;28;45776;-68